Time;durP1;ratioP1;P1;durP2;ratioP2;P2;SDS_P1;SDS_P2;PMS_P1;PMS_P2;Temp;Humidity;BMP_temperature;BMP_pressure;BME280_temperature;BME280_humidity;BME280_pressure;Samples;Min_cycle;Max_cycle;Signal;HPM_P1;HPM_P2
2023/04/25 00:00:56;;;;;;;;;;;17.60;50.50;;;;;;5032811;28;19951;-71
2023/04/25 00:03:22;;;;;;;;;;;17.60;50.50;;;;;;5014946;28;19917;-72
2023/04/25 00:05:47;;;;;;;;;;;17.60;50.60;;;;;;5015120;28;19971;-71
2023/04/25 00:08:13;;;;;;;;;;;17.60;50.60;;;;;;5031532;28;19917;-71
2023/04/25 00:10:38;;;;;;;;;;;17.50;50.60;;;;;;5032561;28;20023;-71
2023/04/25 00:13:04;;;;;;;;;;;17.50;50.60;;;;;;5014919;28;19971;-71
2023/04/25 00:15:30;;;;;;;;;;;17.50;50.60;;;;;;5014771;28;19917;-74
2023/04/25 00:17:56;;;;;;;;;;;17.50;50.60;;;;;;5014925;28;19971;-75
2023/04/25 00:20:23;;;;;;;;;;;17.50;50.60;;;;;;5032468;28;19957;-70
2023/04/25 00:22:49;;;;;;;;;;;17.50;50.60;;;;;;5032342;28;19917;-74
2023/04/25 00:25:14;;;;;;;;;;;17.50;50.70;;;;;;5014376;28;19940;-70
2023/04/25 00:27:41;;;;;;;;;;;17.40;50.60;;;;;;5031948;28;19917;-70
2023/04/25 00:30:07;;;;;;;;;;;17.40;50.70;;;;;;5013767;28;19991;-71
2023/04/25 00:32:32;;;;;;;;;;;17.40;50.70;;;;;;5014234;28;20384;-70
2023/04/25 00:34:58;;;;;;;;;;;17.40;50.70;;;;;;5014557;28;19974;-71
2023/04/25 00:37:24;;;;;;;;;;;17.40;50.70;;;;;;5014456;28;20387;-71
2023/04/25 00:39:50;;;;;;;;;;;17.40;50.70;;;;;;5014384;28;20006;-71
2023/04/25 00:42:15;;;;;;;;;;;17.40;50.70;;;;;;5014689;28;19924;-70
2023/04/25 00:44:42;;;;;;;;;;;17.40;50.70;;;;;;4997717;28;19940;-70
2023/04/25 00:47:08;;;;;;;;;;;17.40;50.70;;;;;;5031269;28;20284;-73
2023/04/25 00:49:33;;;;;;;;;;;17.40;50.70;;;;;;5013415;28;19922;-71
2023/04/25 00:51:59;;;;;;;;;;;17.40;50.70;;;;;;5014320;28;20315;-71
2023/04/25 00:54:25;;;;;;;;;;;17.30;50.70;;;;;;5014266;28;19960;-70
2023/04/25 00:56:50;;;;;;;;;;;17.40;50.70;;;;;;5014431;28;19940;-70
2023/04/25 00:59:16;;;;;;;;;;;17.30;50.70;;;;;;5014333;28;20011;-70
2023/04/25 01:01:42;;;;;;;;;;;17.40;50.70;;;;;;5014428;28;19917;-70
2023/04/25 01:04:08;;;;;;;;;;;17.30;50.70;;;;;;4997751;28;19967;-70
2023/04/25 01:06:33;;;;;;;;;;;17.30;50.70;;;;;;5013478;28;19921;-70
2023/04/25 01:08:59;;;;;;;;;;;17.30;50.70;;;;;;5013161;28;19944;-70
2023/04/25 01:11:24;;;;;;;;;;;17.30;50.80;;;;;;5030215;28;19924;-73
2023/04/25 01:13:50;;;;;;;;;;;17.30;50.90;;;;;;5030073;28;19917;-71
2023/04/25 01:16:16;;;;;;;;;;;17.20;50.90;;;;;;5013826;28;19936;-71
2023/04/25 01:18:42;;;;;;;;;;;17.20;50.90;;;;;;5014213;28;19983;-70
2023/04/25 01:21:08;;;;;;;;;;;17.20;51.00;;;;;;5014016;28;19917;-75
2023/04/25 01:23:34;;;;;;;;;;;17.10;51.00;;;;;;5014381;28;20265;-71
2023/04/25 01:26:00;;;;;;;;;;;17.10;51.00;;;;;;5031450;28;19917;-70
2023/04/25 01:28:26;;;;;;;;;;;17.10;51.00;;;;;;5013454;28;19917;-74
2023/04/25 01:30:51;;;;;;;;;;;17.10;51.10;;;;;;5013041;28;19921;-70
2023/04/25 01:33:19;;;;;;;;;;;17.00;51.10;;;;;;5031458;28;19971;-71
2023/04/25 01:35:44;;;;;;;;;;;17.10;51.20;;;;;;5031417;28;19945;-70
2023/04/25 01:38:10;;;;;;;;;;;17.00;51.20;;;;;;5034934;28;19983;-70
2023/04/25 01:40:38;;;;;;;;;;;17.00;51.20;;;;;;5017599;28;19917;-71
2023/04/25 01:43:04;;;;;;;;;;;17.00;51.20;;;;;;5017280;28;19924;-70
2023/04/25 01:45:29;;;;;;;;;;;17.00;51.30;;;;;;5017193;28;19917;-70
2023/04/25 01:47:58;;;;;;;;;;;17.00;51.30;;;;;;5034587;28;20008;-70
2023/04/25 01:50:24;;;;;;;;;;;17.00;51.30;;;;;;5034214;28;19921;-71
2023/04/25 01:52:50;;;;;;;;;;;17.00;51.30;;;;;;5016736;28;19917;-70
2023/04/25 01:55:16;;;;;;;;;;;17.00;51.40;;;;;;5017128;28;19921;-71
2023/04/25 01:57:41;;;;;;;;;;;16.90;51.30;;;;;;5017469;28;19917;-70
2023/04/25 02:00:08;;;;;;;;;;;16.90;51.30;;;;;;5017537;28;19956;-70
2023/04/25 02:02:35;;;;;;;;;;;16.90;51.30;;;;;;5017249;28;19917;-70
2023/04/25 02:05:00;;;;;;;;;;;16.90;51.30;;;;;;5016813;28;19924;-71
2023/04/25 02:07:26;;;;;;;;;;;16.90;51.30;;;;;;5016898;28;19925;-71
2023/04/25 02:09:51;;;;;;;;;;;16.90;51.30;;;;;;5016143;28;20016;-70
2023/04/25 02:12:17;;;;;;;;;;;16.90;51.30;;;;;;5016283;28;19956;-71
2023/04/25 02:14:43;;;;;;;;;;;16.90;51.30;;;;;;5016818;28;20377;-71
2023/04/25 02:17:08;;;;;;;;;;;16.80;51.20;;;;;;5016686;28;19921;-71
2023/04/25 02:19:34;;;;;;;;;;;16.80;51.20;;;;;;5034493;28;19971;-71
2023/04/25 02:21:59;;;;;;;;;;;16.80;51.20;;;;;;5016981;28;20000;-71
2023/04/25 02:24:25;;;;;;;;;;;16.80;51.20;;;;;;5016672;28;19917;-71
2023/04/25 02:26:50;;;;;;;;;;;16.80;51.20;;;;;;5016607;28;19917;-71
2023/04/25 02:29:16;;;;;;;;;;;16.80;51.20;;;;;;5016445;28;20289;-71
2023/04/25 02:31:42;;;;;;;;;;;16.80;51.10;;;;;;5016566;28;19917;-71
2023/04/25 02:34:07;;;;;;;;;;;16.80;51.10;;;;;;5016766;28;19917;-71
2023/04/25 02:36:35;;;;;;;;;;;16.80;51.10;;;;;;5016496;28;20356;-71
2023/04/25 02:39:01;;;;;;;;;;;16.80;51.10;;;;;;5016451;28;19924;-71
2023/04/25 02:41:26;;;;;;;;;;;16.80;51.10;;;;;;5016774;28;20015;-71
2023/04/25 02:43:52;;;;;;;;;;;16.80;51.10;;;;;;5016334;28;20284;-70
2023/04/25 02:46:17;;;;;;;;;;;16.70;50.90;;;;;;5016681;28;20004;-71
2023/04/25 02:48:43;;;;;;;;;;;16.70;50.90;;;;;;5034417;28;19917;-71
2023/04/25 02:51:09;;;;;;;;;;;16.70;50.90;;;;;;5033900;28;19921;-70
2023/04/25 02:53:34;;;;;;;;;;;16.70;50.80;;;;;;5016181;28;19971;-71
2023/04/25 02:56:00;;;;;;;;;;;16.70;50.80;;;;;;5033842;28;19917;-71
2023/04/25 02:58:25;;;;;;;;;;;16.70;50.80;;;;;;5016427;28;19925;-71
2023/04/25 03:00:51;;;;;;;;;;;16.70;50.80;;;;;;5016279;28;19917;-71
2023/04/25 03:03:17;;;;;;;;;;;16.70;50.80;;;;;;5016306;28;19921;-71
2023/04/25 03:05:43;;;;;;;;;;;16.80;50.70;;;;;;5033665;28;19917;-71
2023/04/25 03:08:09;;;;;;;;;;;16.90;50.40;;;;;;5033573;28;19925;-71
2023/04/25 03:10:34;;;;;;;;;;;17.00;50.10;;;;;;5015820;28;20288;-71
2023/04/25 03:13:00;;;;;;;;;;;17.20;49.70;;;;;;5015824;28;19957;-71
2023/04/25 03:15:25;;;;;;;;;;;17.20;49.40;;;;;;5015758;28;19993;-71
2023/04/25 03:17:51;;;;;;;;;;;17.30;49.10;;;;;;5033385;28;19917;-71
2023/04/25 03:20:20;;;;;;;;;;;17.30;48.90;;;;;;5015695;28;19929;-71
2023/04/25 03:22:45;;;;;;;;;;;17.40;48.90;;;;;;5015608;28;20422;-71
2023/04/25 03:25:11;;;;;;;;;;;17.30;48.70;;;;;;5015802;28;20004;-71
2023/04/25 03:27:36;;;;;;;;;;;17.30;48.70;;;;;;5015975;28;20499;-71
2023/04/25 03:30:02;;;;;;;;;;;17.40;48.70;;;;;;5015379;28;19921;-71
2023/04/25 03:32:28;;;;;;;;;;;17.30;48.70;;;;;;5015785;28;20257;-71
2023/04/25 03:34:53;;;;;;;;;;;17.20;48.70;;;;;;5015857;28;19923;-71
2023/04/25 03:37:19;;;;;;;;;;;17.20;48.80;;;;;;5015701;28;19921;-71
2023/04/25 03:39:44;;;;;;;;;;;17.20;48.80;;;;;;5015659;28;19947;-71
2023/04/25 03:42:10;;;;;;;;;;;17.20;48.90;;;;;;5032970;28;19916;-70
2023/04/25 03:44:35;;;;;;;;;;;17.10;48.90;;;;;;5015348;28;19921;-71
2023/04/25 03:47:01;;;;;;;;;;;17.10;49.00;;;;;;5032837;28;19921;-70
2023/04/25 03:49:26;;;;;;;;;;;17.10;49.00;;;;;;5031779;28;19972;-70
2023/04/25 03:51:52;;;;;;;;;;;17.00;49.00;;;;;;5015095;28;19924;-71
2023/04/25 03:54:17;;;;;;;;;;;17.00;49.10;;;;;;5015354;28;19917;-70
2023/04/25 03:56:43;;;;;;;;;;;17.00;49.20;;;;;;5032967;28;19917;-71
2023/04/25 03:59:09;;;;;;;;;;;16.90;49.20;;;;;;5014741;28;19917;-70
2023/04/25 04:01:35;;;;;;;;;;;16.90;49.20;;;;;;5032843;28;19943;-71
2023/04/25 04:04:00;;;;;;;;;;;16.80;49.30;;;;;;5015336;28;19970;-71
2023/04/25 04:06:26;;;;;;;;;;;16.80;49.30;;;;;;5015320;28;20338;-71
2023/04/25 04:08:52;;;;;;;;;;;16.80;49.40;;;;;;5014995;28;20060;-71
2023/04/25 04:11:17;;;;;;;;;;;16.70;49.50;;;;;;5015185;28;20015;-71
2023/04/25 04:13:43;;;;;;;;;;;16.70;49.60;;;;;;5015124;28;20361;-71
2023/04/25 04:16:08;;;;;;;;;;;16.70;49.70;;;;;;5032751;28;20357;-71
2023/04/25 04:18:34;;;;;;;;;;;16.60;49.60;;;;;;5014691;28;19971;-71
2023/04/25 04:20:59;;;;;;;;;;;16.60;49.60;;;;;;5015122;28;19917;-71
2023/04/25 04:23:27;;;;;;;;;;;16.60;49.70;;;;;;5014742;28;19957;-71
2023/04/25 04:25:53;;;;;;;;;;;16.60;49.80;;;;;;5032334;28;20092;-71
2023/04/25 04:28:19;;;;;;;;;;;16.50;49.70;;;;;;5014582;28;20015;-71
2023/04/25 04:30:45;;;;;;;;;;;16.50;49.80;;;;;;5014517;28;19960;-71
2023/04/25 04:33:11;;;;;;;;;;;16.50;49.80;;;;;;5032330;28;19964;-71
2023/04/25 04:35:37;;;;;;;;;;;16.50;49.80;;;;;;5032388;28;19963;-71
2023/04/25 04:38:03;;;;;;;;;;;16.50;49.80;;;;;;5032193;28;20284;-71
2023/04/25 04:40:30;;;;;;;;;;;16.50;49.80;;;;;;5014505;28;20299;-71
2023/04/25 04:42:57;;;;;;;;;;;16.60;49.60;;;;;;5014732;28;19971;-70
2023/04/25 04:45:23;;;;;;;;;;;16.60;49.40;;;;;;5032465;28;20245;-70
2023/04/25 04:47:49;;;;;;;;;;;16.70;49.30;;;;;;5032147;28;19917;-71
2023/04/25 04:50:15;;;;;;;;;;;16.80;49.10;;;;;;5014271;28;19921;-71
2023/04/25 04:52:41;;;;;;;;;;;16.80;48.80;;;;;;5014468;28;20368;-71
2023/04/25 04:55:07;;;;;;;;;;;16.90;48.60;;;;;;5014384;28;19917;-71
2023/04/25 04:57:34;;;;;;;;;;;17.00;48.60;;;;;;5014449;28;20369;-71
2023/04/25 05:00:00;;;;;;;;;;;17.00;48.40;;;;;;5032038;28;19924;-71
2023/04/25 05:02:26;;;;;;;;;;;17.00;48.20;;;;;;5031099;28;19940;-71
2023/04/25 05:04:51;;;;;;;;;;;17.00;48.20;;;;;;5014303;28;20242;-71
2023/04/25 05:07:17;;;;;;;;;;;17.00;48.20;;;;;;5014611;28;19917;-71
2023/04/25 05:09:43;;;;;;;;;;;17.00;48.10;;;;;;5014085;28;19973;-71
2023/04/25 05:12:08;;;;;;;;;;;17.00;48.10;;;;;;5016015;28;19917;-71
2023/04/25 05:14:34;;;;;;;;;;;17.00;48.10;;;;;;5018535;28;19921;-71
2023/04/25 05:17:00;;;;;;;;;;;16.90;48.10;;;;;;5034436;28;19917;-71
2023/04/25 05:19:26;;;;;;;;;;;16.90;48.20;;;;;;5018190;28;19971;-71
2023/04/25 05:21:52;;;;;;;;;;;16.90;48.20;;;;;;5053688;28;19921;-71
2023/04/25 05:24:17;;;;;;;;;;;16.90;48.20;;;;;;5055349;28;19920;-73
2023/04/25 05:26:43;;;;;;;;;;;16.90;48.30;;;;;;5037015;28;19927;-72
2023/04/25 05:29:08;;;;;;;;;;;16.90;48.70;;;;;;5037456;28;19925;-70
2023/04/25 05:31:35;;;;;;;;;;;16.90;48.90;;;;;;5037305;28;19920;-70
2023/04/25 05:34:01;;;;;;;;;;;17.00;49.30;;;;;;5034073;28;19921;-73
2023/04/25 05:36:27;;;;;;;;;;;17.00;49.40;;;;;;5035787;28;19939;-74
2023/04/25 05:38:52;;;;;;;;;;;17.00;49.40;;;;;;5035278;28;20345;-74
2023/04/25 05:41:21;;;;;;;;;;;17.00;49.30;;;;;;5052432;28;19925;-73
2023/04/25 05:43:49;;;;;;;;;;;17.00;49.40;;;;;;5036357;28;19921;-73
2023/04/25 05:46:16;;;;;;;;;;;17.10;49.30;;;;;;5035468;28;19928;-73
2023/04/25 05:48:42;;;;;;;;;;;17.00;49.30;;;;;;5035499;28;20399;-74
2023/04/25 05:51:08;;;;;;;;;;;17.10;49.30;;;;;;5033903;28;19935;-74
2023/04/25 05:53:34;;;;;;;;;;;17.10;49.30;;;;;;5034457;28;19921;-73
2023/04/25 05:55:59;;;;;;;;;;;17.10;49.20;;;;;;5034633;28;19921;-73
2023/04/25 05:58:25;;;;;;;;;;;17.10;49.30;;;;;;5034558;28;20312;-74
2023/04/25 06:00:51;;;;;;;;;;;17.10;49.20;;;;;;5034461;28;19921;-72
2023/04/25 06:03:17;;;;;;;;;;;17.10;49.30;;;;;;5034262;28;19929;-69
2023/04/25 06:05:42;;;;;;;;;;;17.20;49.80;;;;;;5034696;28;19921;-71
2023/04/25 06:08:08;;;;;;;;;;;17.20;50.30;;;;;;5039001;28;20426;-71
2023/04/25 06:10:34;;;;;;;;;;;17.10;50.70;;;;;;5019208;28;20082;-72
2023/04/25 06:12:59;;;;;;;;;;;17.20;51.10;;;;;;5026862;28;19928;-69
2023/04/25 06:15:25;;;;;;;;;;;17.20;51.30;;;;;;5024993;28;20099;-68
2023/04/25 06:17:51;;;;;;;;;;;17.20;51.10;;;;;;5043538;28;19936;-68
2023/04/25 06:20:16;;;;;;;;;;;17.30;50.90;;;;;;5034020;28;19938;-68
2023/04/25 06:22:42;;;;;;;;;;;17.30;50.60;;;;;;5033860;28;19968;-68
2023/04/25 06:25:07;;;;;;;;;;;17.30;50.10;;;;;;5049468;28;19963;-68
2023/04/25 06:27:33;;;;;;;;;;;17.30;49.90;;;;;;5034360;28;19929;-67
2023/04/25 06:29:58;;;;;;;;;;;17.30;49.60;;;;;;5033339;28;20320;-68
2023/04/25 06:32:25;;;;;;;;;;;17.30;49.30;;;;;;5041801;28;19924;-68
2023/04/25 06:34:50;;;;;;;;;;;17.30;49.20;;;;;;5050573;28;19924;-68
2023/04/25 06:37:16;;;;;;;;;;;17.30;49.00;;;;;;5028792;28;19929;-68
2023/04/25 06:39:41;;;;;;;;;;;17.20;48.80;;;;;;5042738;28;20698;-68
2023/04/25 06:42:07;;;;;;;;;;;17.30;48.80;;;;;;5047399;28;20307;-68
2023/04/25 06:44:32;;;;;;;;;;;17.20;48.80;;;;;;5044062;28;19921;-70
2023/04/25 06:46:58;;;;;;;;;;;17.20;48.80;;;;;;5039958;28;19921;-70
2023/04/25 06:49:23;;;;;;;;;;;17.20;49.00;;;;;;5027976;28;19971;-69
2023/04/25 06:51:49;;;;;;;;;;;17.30;49.20;;;;;;5022577;28;19924;-71
2023/04/25 06:54:14;;;;;;;;;;;17.30;49.30;;;;;;5027797;28;20015;-69
2023/04/25 06:56:40;;;;;;;;;;;17.30;49.30;;;;;;5040476;28;19927;-68
2023/04/25 06:59:05;;;;;;;;;;;17.40;49.30;;;;;;5044507;28;19929;-68
2023/04/25 07:01:31;;;;;;;;;;;17.50;49.40;;;;;;5024805;28;20040;-65
2023/04/25 07:03:56;;;;;;;;;;;17.60;49.30;;;;;;5024435;28;19925;-65
2023/04/25 07:06:22;;;;;;;;;;;17.50;49.30;;;;;;5045638;28;19924;-64
2023/04/25 07:08:47;;;;;;;;;;;17.50;49.20;;;;;;5046391;28;19943;-65
2023/04/25 07:11:13;;;;;;;;;;;17.50;49.10;;;;;;5042851;28;20377;-66
2023/04/25 07:13:38;;;;;;;;;;;17.50;48.90;;;;;;5042010;28;19920;-66
2023/04/25 07:16:04;;;;;;;;;;;17.50;48.70;;;;;;5041310;28;19921;-65
2023/04/25 07:18:30;;;;;;;;;;;17.50;48.60;;;;;;5045583;28;19932;-65
2023/04/25 07:20:55;;;;;;;;;;;17.50;48.20;;;;;;5042340;28;19925;-65
2023/04/25 07:23:21;;;;;;;;;;;17.50;48.00;;;;;;5043883;28;19928;-69
2023/04/25 07:25:47;;;;;;;;;;;17.40;47.90;;;;;;5039498;28;19964;-69
2023/04/25 07:28:12;;;;;;;;;;;17.40;48.00;;;;;;5042835;28;19960;-69
2023/04/25 07:30:37;;;;;;;;;;;17.40;48.10;;;;;;5040979;28;19980;-70
2023/04/25 07:33:03;;;;;;;;;;;17.40;49.00;;;;;;5039391;28;19924;-69
2023/04/25 07:35:28;;;;;;;;;;;17.40;48.20;;;;;;5042825;28;19932;-65
2023/04/25 07:37:55;;;;;;;;;;;17.40;48.20;;;;;;5034361;28;19927;-70
2023/04/25 07:40:20;;;;;;;;;;;17.50;48.30;;;;;;5043841;28;19924;-70
2023/04/25 07:42:46;;;;;;;;;;;17.50;48.50;;;;;;5025021;28;20450;-73
2023/04/25 07:45:11;;;;;;;;;;;17.50;48.60;;;;;;5028771;28;19980;-71
2023/04/25 07:47:38;;;;;;;;;;;17.50;48.70;;;;;;5045586;28;19921;-70
2023/04/25 07:50:03;;;;;;;;;;;17.50;48.70;;;;;;5029489;28;19924;-76
2023/04/25 07:52:29;;;;;;;;;;;17.50;48.80;;;;;;5024969;28;19944;-74
2023/04/25 07:54:54;;;;;;;;;;;17.50;48.80;;;;;;5031224;28;20011;-77
2023/04/25 07:57:20;;;;;;;;;;;17.50;48.90;;;;;;5045370;28;20015;-70
2023/04/25 07:59:46;;;;;;;;;;;17.50;49.20;;;;;;5024781;28;19932;-68
2023/04/25 08:02:11;;;;;;;;;;;17.50;49.40;;;;;;5027086;28;20039;-70
2023/04/25 08:04:37;;;;;;;;;;;17.50;49.50;;;;;;5039877;28;19921;-69
2023/04/25 08:07:02;;;;;;;;;;;17.50;49.50;;;;;;5052703;28;19925;-71
2023/04/25 08:09:29;;;;;;;;;;;17.50;49.50;;;;;;5030824;28;19976;-76
2023/04/25 08:11:54;;;;;;;;;;;17.50;49.60;;;;;;5046342;28;19929;-69
2023/04/25 08:14:20;;;;;;;;;;;17.40;49.60;;;;;;5050696;28;20570;-72
2023/04/25 08:16:45;;;;;;;;;;;17.40;49.70;;;;;;5048701;28;19920;-72
2023/04/25 08:19:11;;;;;;;;;;;17.50;49.70;;;;;;5046803;28;19978;-71
2023/04/25 08:21:36;;;;;;;;;;;17.50;49.70;;;;;;5048431;28;20497;-69
2023/04/25 08:24:02;;;;;;;;;;;17.50;49.40;;;;;;5033884;28;20634;-70
2023/04/25 08:26:28;;;;;;;;;;;17.50;49.30;;;;;;5032411;28;19978;-71
2023/04/25 08:28:54;;;;;;;;;;;17.50;49.30;;;;;;5049994;28;19975;-74
2023/04/25 08:31:19;;;;;;;;;;;17.50;50.00;;;;;;5034091;28;19929;-70
2023/04/25 08:33:45;;;;;;;;;;;17.50;49.40;;;;;;5044244;28;19921;-68
2023/04/25 08:36:11;;;;;;;;;;;17.50;49.60;;;;;;5045734;28;19999;-70
2023/04/25 08:38:36;;;;;;;;;;;17.50;49.70;;;;;;5050754;28;19936;-70
2023/04/25 08:41:02;;;;;;;;;;;17.40;49.50;;;;;;5028820;28;19947;-67
2023/04/25 08:43:29;;;;;;;;;;;17.40;49.10;;;;;;5048330;28;19955;-67
2023/04/25 08:45:58;;;;;;;;;;;17.40;48.90;;;;;;5028671;28;19932;-67
2023/04/25 08:48:24;;;;;;;;;;;17.40;48.50;;;;;;5030586;28;19927;-68
2023/04/25 08:50:51;;;;;;;;;;;17.40;47.90;;;;;;5026058;28;19925;-71
2023/04/25 08:53:19;;;;;;;;;;;17.40;47.60;;;;;;5027256;28;19932;-65
2023/04/25 08:55:46;;;;;;;;;;;17.40;47.70;;;;;;5042462;28;20003;-67
2023/04/25 08:58:12;;;;;;;;;;;17.40;47.80;;;;;;5028539;28;19928;-71
2023/04/25 09:00:38;;;;;;;;;;;17.40;48.20;;;;;;5042261;28;19932;-72
2023/04/25 09:03:03;;;;;;;;;;;17.40;48.20;;;;;;5028028;28;19925;-66
2023/04/25 09:05:28;;;;;;;;;;;17.50;48.30;;;;;;5024402;28;20447;-64
2023/04/25 09:07:56;;;;;;;;;;;17.50;48.50;;;;;;5044875;28;19925;-66
2023/04/25 09:10:21;;;;;;;;;;;17.60;48.70;;;;;;5045493;28;20011;-67
2023/04/25 09:13:08;;;;;;;;;;;17.70;48.60;;;;;;5030334;28;19935;-67
2023/04/25 09:15:51;;;;;;;;;;;17.80;48.60;;;;;;5023341;28;19925;-67
2023/04/25 09:18:25;;;;;;;;;;;17.90;48.50;;;;;;5023989;28;19931;-68
2023/04/25 09:20:53;;;;;;;;;;;18.00;48.60;;;;;;5046994;28;19932;-66
2023/04/25 09:23:20;;;;;;;;;;;18.00;48.40;;;;;;5032879;28;20015;-67
2023/04/25 09:25:47;;;;;;;;;;;18.10;48.30;;;;;;5043918;28;19931;-67
2023/04/25 09:28:12;;;;;;;;;;;18.10;48.20;;;;;;5023651;28;20007;-67
2023/04/25 09:30:38;;;;;;;;;;;18.10;48.30;;;;;;5028897;28;20062;-68
2023/04/25 09:33:04;;;;;;;;;;;18.20;48.30;;;;;;5030507;28;19921;-69
2023/04/25 09:35:34;;;;;;;;;;;18.20;48.20;;;;;;5027304;28;20026;-68
2023/04/25 09:38:00;;;;;;;;;;;18.20;48.30;;;;;;5026960;28;19925;-68
2023/04/25 09:40:26;;;;;;;;;;;18.20;48.30;;;;;;5045435;28;20387;-69
2023/04/25 09:42:51;;;;;;;;;;;18.20;48.30;;;;;;5041630;28;20034;-67
2023/04/25 09:45:17;;;;;;;;;;;18.30;48.20;;;;;;5023179;28;20011;-69
2023/04/25 09:47:43;;;;;;;;;;;18.30;47.80;;;;;;5045057;28;20019;-69
2023/04/25 09:50:17;;;;;;;;;;;18.40;47.90;;;;;;5033611;28;19951;-71
2023/04/25 09:52:43;;;;;;;;;;;18.30;48.00;;;;;;5048168;28;19932;-70
2023/04/25 09:55:08;;;;;;;;;;;18.40;48.30;;;;;;5011395;28;19925;-68
2023/04/25 09:57:35;;;;;;;;;;;18.40;48.10;;;;;;5039684;28;19974;-70
2023/04/25 10:00:00;;;;;;;;;;;18.40;48.20;;;;;;5028867;28;19928;-68
2023/04/25 10:02:26;;;;;;;;;;;18.40;48.30;;;;;;5045535;28;19950;-70
2023/04/25 10:04:54;;;;;;;;;;;18.40;48.30;;;;;;5042205;28;19971;-73
2023/04/25 10:07:23;;;;;;;;;;;18.40;48.40;;;;;;5027793;28;19954;-69
2023/04/25 10:09:50;;;;;;;;;;;18.40;48.60;;;;;;5041402;28;20024;-69
2023/04/25 10:12:16;;;;;;;;;;;18.40;48.60;;;;;;5028441;28;19925;-69
2023/04/25 10:14:42;;;;;;;;;;;18.40;48.80;;;;;;5046348;28;19979;-69
2023/04/25 10:17:09;;;;;;;;;;;18.50;49.00;;;;;;5042477;28;19956;-71
2023/04/25 10:19:35;;;;;;;;;;;18.50;49.30;;;;;;5041004;28;19921;-74
2023/04/25 10:22:10;;;;;;;;;;;18.50;49.00;;;;;;5028714;28;19943;-72
2023/04/25 10:24:37;;;;;;;;;;;18.50;49.10;;;;;;5026279;28;19929;-70
2023/04/25 10:27:02;;;;;;;;;;;18.50;48.70;;;;;;5041269;28;19924;-74
2023/04/25 10:29:28;;;;;;;;;;;18.50;48.40;;;;;;5040180;28;19951;-72
2023/04/25 10:31:54;;;;;;;;;;;18.50;48.60;;;;;;5036150;28;19925;-72
2023/04/25 10:34:23;;;;;;;;;;;18.40;48.80;;;;;;5043360;28;20003;-72
2023/04/25 10:36:50;;;;;;;;;;;18.40;48.80;;;;;;5024578;28;20032;-72
2023/04/25 10:39:21;;;;;;;;;;;18.40;48.60;;;;;;5043352;28;19929;-71
2023/04/25 10:41:51;;;;;;;;;;;18.40;48.40;;;;;;5041876;28;20632;-69
2023/04/25 10:44:17;;;;;;;;;;;18.30;48.20;;;;;;5042628;28;19929;-68
2023/04/25 10:46:44;;;;;;;;;;;18.30;48.20;;;;;;5028430;28;20010;-68
2023/04/25 10:49:10;;;;;;;;;;;18.40;48.20;;;;;;5028769;28;19932;-68
2023/04/25 10:51:36;;;;;;;;;;;18.40;48.20;;;;;;5025226;28;19924;-68
2023/04/25 10:56:44;;;;;;;;;;;18.40;48.30;;;;;;5071988;27;19921;-70
2023/04/25 10:59:11;;;;;;;;;;;18.40;48.30;;;;;;5062529;28;19971;-70
2023/04/25 11:01:38;;;;;;;;;;;18.30;48.30;;;;;;5041508;28;19948;-68
2023/04/25 11:04:03;;;;;;;;;;;18.40;48.30;;;;;;5042761;28;19931;-69
2023/04/25 11:06:37;;;;;;;;;;;18.40;48.30;;;;;;5045561;28;19924;-70
2023/04/25 11:09:02;;;;;;;;;;;18.40;48.20;;;;;;5042505;28;20396;-68
2023/04/25 11:11:28;;;;;;;;;;;18.40;48.00;;;;;;5041105;28;19924;-71
2023/04/25 11:13:54;;;;;;;;;;;18.40;48.00;;;;;;5039293;28;19931;-72
2023/04/25 11:16:23;;;;;;;;;;;18.40;48.10;;;;;;5051467;28;19929;-73
2023/04/25 11:18:49;;;;;;;;;;;18.40;48.30;;;;;;5040376;28;20273;-70
2023/04/25 11:21:14;;;;;;;;;;;18.40;48.40;;;;;;5061798;28;19935;-70
2023/04/25 11:23:40;;;;;;;;;;;18.40;48.50;;;;;;5041922;28;19928;-72
2023/04/25 11:26:06;;;;;;;;;;;18.40;48.70;;;;;;5042109;28;19989;-72
2023/04/25 11:28:31;;;;;;;;;;;18.50;48.80;;;;;;5057987;28;20007;-71
2023/04/25 11:30:57;;;;;;;;;;;18.40;48.70;;;;;;5040745;28;19928;-71
2023/04/25 11:33:23;;;;;;;;;;;18.40;48.70;;;;;;5058169;28;19973;-71
2023/04/25 11:35:48;;;;;;;;;;;18.40;48.70;;;;;;5039880;28;19932;-69
2023/04/25 11:38:14;;;;;;;;;;;18.40;48.80;;;;;;5058301;28;19970;-73
2023/04/25 11:40:40;;;;;;;;;;;18.30;48.70;;;;;;5057407;28;19924;-71
2023/04/25 11:43:05;;;;;;;;;;;18.30;48.80;;;;;;5042432;28;20686;-72
2023/04/25 11:45:31;;;;;;;;;;;18.30;48.70;;;;;;5061001;28;19935;-71
2023/04/25 11:47:57;;;;;;;;;;;18.30;48.70;;;;;;5057257;28;19929;-68
2023/04/25 11:50:22;;;;;;;;;;;18.30;48.70;;;;;;5060810;28;19982;-69
2023/04/25 11:52:48;;;;;;;;;;;18.30;48.70;;;;;;5045590;28;20020;-68
2023/04/25 11:55:14;;;;;;;;;;;18.70;48.60;;;;;;5058888;28;19928;-70
2023/04/25 11:57:40;;;;;;;;;;;19.00;49.00;;;;;;5038859;28;19921;-68
2023/04/25 12:00:08;;;;;;;;;;;19.40;47.50;;;;;;5045568;28;19921;-67
2023/04/25 12:02:35;;;;;;;;;;;19.70;46.90;;;;;;5058633;28;19921;-71
2023/04/25 12:05:01;;;;;;;;;;;20.20;46.20;;;;;;5058799;28;19929;-67
2023/04/25 12:07:28;;;;;;;;;;;20.50;45.50;;;;;;5037895;28;20383;-70
2023/04/25 12:09:54;;;;;;;;;;;20.80;44.80;;;;;;5018963;28;19931;-70
2023/04/25 12:12:20;;;;;;;;;;;21.30;44.00;;;;;;5037706;28;19932;-69
2023/04/25 12:14:47;;;;;;;;;;;21.60;43.70;;;;;;5026050;28;19929;-75
2023/04/25 12:17:13;;;;;;;;;;;21.80;43.10;;;;;;5025284;28;19974;-73
2023/04/25 12:19:43;;;;;;;;;;;22.00;42.70;;;;;;5030937;28;19928;-71
2023/04/25 12:22:24;;;;;;;;;;;22.20;42.40;;;;;;5044292;28;19928;-72
2023/04/25 12:24:50;;;;;;;;;;;22.40;42.20;;;;;;5025047;28;19964;-72
2023/04/25 12:27:18;;;;;;;;;;;22.50;41.90;;;;;;5040868;28;19956;-69
2023/04/25 12:29:52;;;;;;;;;;;22.60;41.50;;;;;;5038843;28;19921;-70
2023/04/25 12:32:18;;;;;;;;;;;22.50;41.30;;;;;;5031551;28;19932;-69
2023/04/25 12:34:44;;;;;;;;;;;22.50;41.20;;;;;;5019776;28;19925;-71
2023/04/25 12:37:10;;;;;;;;;;;22.50;40.80;;;;;;5037526;28;19924;-70
2023/04/25 12:39:36;;;;;;;;;;;22.50;40.80;;;;;;5038040;28;20143;-69
2023/04/25 12:42:02;;;;;;;;;;;22.40;40.80;;;;;;5040375;28;20292;-69
2023/04/25 12:44:27;;;;;;;;;;;22.40;40.80;;;;;;5025971;28;20267;-70
2023/04/25 12:46:54;;;;;;;;;;;22.40;41.00;;;;;;5018434;28;19931;-67
2023/04/25 12:49:19;;;;;;;;;;;22.20;41.10;;;;;;5021779;28;19929;-69
2023/04/25 12:51:45;;;;;;;;;;;22.20;41.20;;;;;;5041625;28;19935;-70
2023/04/25 12:54:10;;;;;;;;;;;22.20;41.30;;;;;;5016393;28;20572;-70
2023/04/25 12:56:36;;;;;;;;;;;22.10;41.40;;;;;;5030216;28;20017;-71
2023/04/25 12:59:03;;;;;;;;;;;22.00;41.50;;;;;;5021202;28;19921;-67
2023/04/25 13:01:29;;;;;;;;;;;22.00;41.60;;;;;;5034634;28;19936;-67
2023/04/25 13:03:55;;;;;;;;;;;21.80;41.70;;;;;;5025549;28;19929;-72
2023/04/25 13:06:21;;;;;;;;;;;21.80;41.90;;;;;;5038460;28;19921;-66
2023/04/25 13:08:47;;;;;;;;;;;21.60;41.70;;;;;;5026225;28;19948;-69
2023/04/25 13:11:14;;;;;;;;;;;21.50;41.70;;;;;;5027654;28;19924;-69
2023/04/25 13:13:40;;;;;;;;;;;21.40;41.70;;;;;;5042038;28;19925;-69
2023/04/25 13:16:05;;;;;;;;;;;21.30;41.60;;;;;;5024746;28;19933;-68
2023/04/25 13:18:31;;;;;;;;;;;21.30;41.60;;;;;;5031870;28;20483;-69
2023/04/25 13:20:57;;;;;;;;;;;21.20;41.60;;;;;;5045488;28;19925;-68
2023/04/25 13:23:24;;;;;;;;;;;21.20;41.50;;;;;;5043077;28;19928;-68
2023/04/25 13:25:50;;;;;;;;;;;21.20;41.50;;;;;;5040097;28;20398;-67
2023/04/25 13:28:16;;;;;;;;;;;21.10;41.20;;;;;;5030500;28;19925;-67
2023/04/25 13:30:42;;;;;;;;;;;21.10;41.10;;;;;;5046123;28;19928;-67
2023/04/25 13:33:08;;;;;;;;;;;21.20;40.90;;;;;;5045415;28;19921;-67
2023/04/25 13:35:34;;;;;;;;;;;21.20;40.70;;;;;;5030235;28;19943;-67
2023/04/25 13:38:00;;;;;;;;;;;21.20;40.30;;;;;;5054908;28;19927;-68
2023/04/25 13:40:26;;;;;;;;;;;21.20;40.30;;;;;;5028420;28;20502;-68
2023/04/25 13:42:52;;;;;;;;;;;21.30;40.20;;;;;;5027333;28;19932;-69
2023/04/25 13:45:18;;;;;;;;;;;21.30;40.10;;;;;;5029655;28;20212;-69
2023/04/25 13:47:44;;;;;;;;;;;21.40;40.10;;;;;;5038166;28;19920;-68
2023/04/25 13:50:10;;;;;;;;;;;21.40;39.80;;;;;;5046136;28;19927;-67
2023/04/25 13:52:35;;;;;;;;;;;21.50;39.60;;;;;;5048112;28;19982;-67
2023/04/25 13:55:03;;;;;;;;;;;21.60;39.40;;;;;;5040943;28;19973;-66
2023/04/25 13:57:30;;;;;;;;;;;21.70;39.40;;;;;;5038085;28;19925;-66
2023/04/25 13:59:55;;;;;;;;;;;21.80;39.50;;;;;;5040382;28;20364;-68
2023/04/25 14:02:21;;;;;;;;;;;21.70;39.50;;;;;;5033168;28;19947;-68
2023/04/25 14:04:47;;;;;;;;;;;21.70;39.60;;;;;;5049587;28;19921;-67
2023/04/25 14:07:15;;;;;;;;;;;21.60;39.50;;;;;;5033095;28;19927;-68
2023/04/25 14:09:41;;;;;;;;;;;21.60;39.70;;;;;;5028367;28;19966;-69
2023/04/25 14:12:07;;;;;;;;;;;21.60;39.70;;;;;;5036603;28;20027;-67